sensor_id;sensor_type;location;lat;lon;timestamp;pressure;altitude;pressure_sealevel;temperature;humidity
55070;BME280;40967;52.070;8.596;2023-04-02T00:07:43;100033.13;;;5.57;100.00
55070;BME280;40967;52.070;8.596;2023-04-02T00:10:35;100038.75;;;5.56;100.00
55070;BME280;40967;52.070;8.596;2023-04-02T00:15:37;100049.94;;;5.48;100.00
55070;BME280;40967;52.070;8.596;2023-04-02T00:18:04;100028.84;;;5.40;100.00
55070;BME280;40967;52.070;8.596;2023-04-02T00:20:34;100047.75;;;5.45;100.00
55070;BME280;40967;52.070;8.596;2023-04-02T00:23:03;100057.69;;;5.44;100.00
55070;BME280;40967;52.070;8.596;2023-04-02T00:25:29;100068.19;;;5.46;100.00
55070;BME280;40967;52.070;8.596;2023-04-02T00:27:58;100068.44;;;5.44;100.00
55070;BME280;40967;52.070;8.596;2023-04-02T00:30:24;100061.69;;;5.42;100.00
55070;BME280;40967;52.070;8.596;2023-04-02T00:32:50;100067.88;;;5.42;100.00
55070;BME280;40967;52.070;8.596;2023-04-02T00:35:25;100078.06;;;5.40;100.00
55070;BME280;40967;52.070;8.596;2023-04-02T00:37:51;100087.22;;;5.39;100.00
55070;BME280;40967;52.070;8.596;2023-04-02T00:40:23;100093.88;;;5.37;100.00
55070;BME280;40967;52.070;8.596;2023-04-02T00:42:51;100099.50;;;5.35;100.00
55070;BME280;40967;52.070;8.596;2023-04-02T00:45:26;100100.09;;;5.37;100.00
55070;BME280;40967;52.070;8.596;2023-04-02T00:47:54;100096.56;;;5.37;100.00
55070;BME280;40967;52.070;8.596;2023-04-02T00:50:40;100107.66;;;5.40;100.00
55070;BME280;40967;52.070;8.596;2023-04-02T00:53:12;100106.28;;;5.38;100.00
55070;BME280;40967;52.070;8.596;2023-04-02T00:55:40;100118.41;;;5.40;100.00
55070;BME280;40967;52.070;8.596;2023-04-02T00:58:33;100128.97;;;5.42;100.00
55070;BME280;40967;52.070;8.596;2023-04-02T01:01:00;100129.69;;;5.37;100.00
55070;BME280;40967;52.070;8.596;2023-04-02T01:03:33;100128.06;;;5.36;100.00
55070;BME280;40967;52.070;8.596;2023-04-02T01:06:11;100125.88;;;5.33;100.00
55070;BME280;40967;52.070;8.596;2023-04-02T01:14:19;100138.66;;;5.26;100.00
55070;BME280;40967;52.070;8.596;2023-04-02T01:16:59;100144.03;;;5.26;100.00
55070;BME280;40967;52.070;8.596;2023-04-02T01:22:06;100152.81;;;5.22;100.00
55070;BME280;40967;52.070;8.596;2023-04-02T01:24:34;100148.44;;;5.16;100.00
55070;BME280;40967;52.070;8.596;2023-04-02T01:27:04;100168.38;;;5.20;100.00
55070;BME280;40967;52.070;8.596;2023-04-02T01:29:38;100167.81;;;5.18;100.00
55070;BME280;40967;52.070;8.596;2023-04-02T01:32:14;100184.75;;;5.18;100.00
55070;BME280;40967;52.070;8.596;2023-04-02T01:34:42;100189.56;;;5.16;100.00
55070;BME280;40967;52.070;8.596;2023-04-02T01:40:38;100203.75;;;5.12;100.00
55070;BME280;40967;52.070;8.596;2023-04-02T01:45:33;100203.56;;;5.02;100.00
55070;BME280;40967;52.070;8.596;2023-04-02T01:48:03;100207.44;;;4.94;100.00
55070;BME280;40967;52.070;8.596;2023-04-02T01:50:34;100217.28;;;4.89;100.00
55070;BME280;40967;52.070;8.596;2023-04-02T01:53:09;100216.59;;;4.82;100.00
55070;BME280;40967;52.070;8.596;2023-04-02T01:58:12;100227.50;;;4.75;100.00
55070;BME280;40967;52.070;8.596;2023-04-02T02:01:05;100234.75;;;4.75;100.00
55070;BME280;40967;52.070;8.596;2023-04-02T02:03:37;100237.44;;;4.75;100.00
55070;BME280;40967;52.070;8.596;2023-04-02T02:06:05;100233.84;;;4.69;100.00
55070;BME280;40967;52.070;8.596;2023-04-02T02:08:38;100246.22;;;4.70;100.00
55070;BME280;40967;52.070;8.596;2023-04-02T02:11:05;100256.13;;;4.70;100.00
55070;BME280;40967;52.070;8.596;2023-04-02T02:13:30;100252.53;;;4.64;100.00
55070;BME280;40967;52.070;8.596;2023-04-02T02:16:00;100258.13;;;4.62;100.00
55070;BME280;40967;52.070;8.596;2023-04-02T02:18:27;100255.94;;;4.59;100.00
55070;BME280;40967;52.070;8.596;2023-04-02T02:20:54;100241.22;;;4.50;100.00
55070;BME280;40967;52.070;8.596;2023-04-02T02:23:21;100256.66;;;4.55;100.00
55070;BME280;40967;52.070;8.596;2023-04-02T02:25:47;100273.81;;;4.54;100.00
55070;BME280;40967;52.070;8.596;2023-04-02T02:30:45;100284.09;;;4.45;100.00
55070;BME280;40967;52.070;8.596;2023-04-02T02:33:22;100293.81;;;4.46;100.00
55070;BME280;40967;52.070;8.596;2023-04-02T02:36:13;100298.59;;;4.44;100.00
55070;BME280;40967;52.070;8.596;2023-04-02T02:38:49;100293.47;;;4.43;100.00
55070;BME280;40967;52.070;8.596;2023-04-02T02:44:22;100309.22;;;4.39;100.00
55070;BME280;40967;52.070;8.596;2023-04-02T02:47:14;100317.63;;;4.31;100.00
55070;BME280;40967;52.070;8.596;2023-04-02T02:49:43;100330.47;;;4.29;100.00
55070;BME280;40967;52.070;8.596;2023-04-02T02:52:21;100315.88;;;4.25;100.00
55070;BME280;40967;52.070;8.596;2023-04-02T02:54:53;100326.50;;;4.20;100.00
55070;BME280;40967;52.070;8.596;2023-04-02T02:57:26;100338.63;;;4.23;100.00
55070;BME280;40967;52.070;8.596;2023-04-02T02:59:56;100333.03;;;4.24;100.00
55070;BME280;40967;52.070;8.596;2023-04-02T03:02:23;100343.19;;;4.22;99.81
55070;BME280;40967;52.070;8.596;2023-04-02T03:04:50;100337.34;;;4.14;99.39
55070;BME280;40967;52.070;8.596;2023-04-02T03:07:19;100359.19;;;4.17;99.02
55070;BME280;40967;52.070;8.596;2023-04-02T03:10:14;100355.91;;;4.15;99.26
55070;BME280;40967;52.070;8.596;2023-04-02T03:15:55;100375.63;;;4.09;98.72
55070;BME280;40967;52.070;8.596;2023-04-02T03:21:09;100378.78;;;4.06;98.96
55070;BME280;40967;52.070;8.596;2023-04-02T03:23:45;100386.00;;;4.06;98.70
55070;BME280;40967;52.070;8.596;2023-04-02T03:26:30;100398.16;;;4.08;98.91
55070;BME280;40967;52.070;8.596;2023-04-02T03:29:33;100397.00;;;4.04;98.48
55070;BME280;40967;52.070;8.596;2023-04-02T03:32:49;100410.66;;;4.03;99.08
55070;BME280;40967;52.070;8.596;2023-04-02T03:34:54;100402.47;;;3.98;98.73
55070;BME280;40967;52.070;8.596;2023-04-02T03:38:04;100418.34;;;3.99;98.45
55070;BME280;40967;52.070;8.596;2023-04-02T03:40:33;100423.72;;;3.99;98.06
55070;BME280;40967;52.070;8.596;2023-04-02T03:43:10;100427.66;;;3.97;98.34
55070;BME280;40967;52.070;8.596;2023-04-02T03:45:41;100445.41;;;3.98;98.03
55070;BME280;40967;52.070;8.596;2023-04-02T03:50:47;100455.31;;;3.97;97.88
55070;BME280;40967;52.070;8.596;2023-04-02T03:53:15;100455.78;;;3.94;98.17
55070;BME280;40967;52.070;8.596;2023-04-02T03:55:41;100464.19;;;3.98;98.18
55070;BME280;40967;52.070;8.596;2023-04-02T03:58:19;100468.16;;;3.95;97.94
55070;BME280;40967;52.070;8.596;2023-04-02T04:03:27;100484.34;;;3.89;98.22
55070;BME280;40967;52.070;8.596;2023-04-02T04:05:58;100487.03;;;3.89;97.59
55070;BME280;40967;52.070;8.596;2023-04-02T04:08:30;100483.75;;;3.87;97.69
55070;BME280;40967;52.070;8.596;2023-04-02T04:11:02;100489.34;;;3.85;97.38
55070;BME280;40967;52.070;8.596;2023-04-02T04:13:58;100498.44;;;3.84;96.85
55070;BME280;40967;52.070;8.596;2023-04-02T04:16:30;100504.72;;;3.78;96.26
55070;BME280;40967;52.070;8.596;2023-04-02T04:19:38;100504.81;;;3.72;96.44
55070;BME280;40967;52.070;8.596;2023-04-02T04:22:26;100506.06;;;3.69;96.63
55070;BME280;40967;52.070;8.596;2023-04-02T04:25:04;100516.19;;;3.67;96.95
55070;BME280;40967;52.070;8.596;2023-04-02T04:32:48;100526.09;;;3.67;96.69
55070;BME280;40967;52.070;8.596;2023-04-02T04:35:28;100533.56;;;3.65;96.98
55070;BME280;40967;52.070;8.596;2023-04-02T04:38:03;100542.50;;;3.59;96.69
55070;BME280;40967;52.070;8.596;2023-04-02T04:40:36;100540.03;;;3.57;96.67
55070;BME280;40967;52.070;8.596;2023-04-02T04:43:11;100558.81;;;3.57;96.61
55070;BME280;40967;52.070;8.596;2023-04-02T04:45:49;100557.78;;;3.58;96.62
55070;BME280;40967;52.070;8.596;2023-04-02T04:48:26;100553.31;;;3.52;96.20
55070;BME280;40967;52.070;8.596;2023-04-02T04:50:57;100559.28;;;3.54;95.83
55070;BME280;40967;52.070;8.596;2023-04-02T04:53:26;100572.25;;;3.57;95.60
55070;BME280;40967;52.070;8.596;2023-04-02T04:55:54;100584.59;;;3.58;95.29
55070;BME280;40967;52.070;8.596;2023-04-02T04:58:41;100587.50;;;3.57;95.43
55070;BME280;40967;52.070;8.596;2023-04-02T05:06:51;100606.72;;;3.54;95.48
55070;BME280;40967;52.070;8.596;2023-04-02T05:15:31;100623.13;;;3.45;94.76
55070;BME280;40967;52.070;8.596;2023-04-02T05:21:11;100621.91;;;3.41;95.09
55070;BME280;40967;52.070;8.596;2023-04-02T05:23:51;100646.44;;;3.45;95.48
55070;BME280;40967;52.070;8.596;2023-04-02T05:26:24;100644.19;;;3.42;95.32
55070;BME280;40967;52.070;8.596;2023-04-02T05:29:17;100650.75;;;3.46;94.84
55070;BME280;40967;52.070;8.596;2023-04-02T05:31:54;100651.78;;;3.45;94.75
55070;BME280;40967;52.070;8.596;2023-04-02T05:34:27;100655.94;;;3.41;94.99
55070;BME280;40967;52.070;8.596;2023-04-02T05:36:53;100650.59;;;3.41;94.81
55070;BME280;40967;52.070;8.596;2023-04-02T05:39:24;100657.84;;;3.40;94.72
55070;BME280;40967;52.070;8.596;2023-04-02T05:42:06;100676.97;;;3.44;94.87
55070;BME280;40967;52.070;8.596;2023-04-02T05:44:47;100675.09;;;3.44;94.50
55070;BME280;40967;52.070;8.596;2023-04-02T05:47:20;100685.00;;;3.44;94.31
55070;BME280;40967;52.070;8.596;2023-04-02T05:49:59;100689.13;;;3.46;94.27
55070;BME280;40967;52.070;8.596;2023-04-02T05:52:29;100691.59;;;3.48;93.91
55070;BME280;40967;52.070;8.596;2023-04-02T05:57:46;100696.78;;;3.43;93.77
55070;BME280;40967;52.070;8.596;2023-04-02T06:00:38;100711.41;;;3.47;93.75
55070;BME280;40967;52.070;8.596;2023-04-02T06:04:13;100718.41;;;3.48;93.48
55070;BME280;40967;52.070;8.596;2023-04-02T06:14:52;100733.47;;;3.49;93.31
55070;BME280;40967;52.070;8.596;2023-04-02T06:17:19;100745.84;;;3.50;93.21
55070;BME280;40967;52.070;8.596;2023-04-02T06:19:45;100754.09;;;3.48;93.17
55070;BME280;40967;52.070;8.596;2023-04-02T06:22:19;100756.34;;;3.52;93.11
55070;BME280;40967;52.070;8.596;2023-04-02T06:24:52;100764.16;;;3.53;92.99
55070;BME280;40967;52.070;8.596;2023-04-02T06:27:22;100777.16;;;3.56;92.70
55070;BME280;40967;52.070;8.596;2023-04-02T06:29:49;100778.56;;;3.59;92.35
55070;BME280;40967;52.070;8.596;2023-04-02T06:32:18;100786.84;;;3.57;91.90
55070;BME280;40967;52.070;8.596;2023-04-02T06:34:46;100799.03;;;3.60;91.70
55070;BME280;40967;52.070;8.596;2023-04-02T06:37:21;100803.16;;;3.56;91.57
55070;BME280;40967;52.070;8.596;2023-04-02T06:39:48;100808.31;;;3.57;90.99
55070;BME280;40967;52.070;8.596;2023-04-02T06:42:39;100818.22;;;3.57;90.56
55070;BME280;40967;52.070;8.596;2023-04-02T06:45:23;100816.56;;;3.56;90.07
55070;BME280;40967;52.070;8.596;2023-04-02T06:47:50;100826.03;;;3.58;89.74
55070;BME280;40967;52.070;8.596;2023-04-02T06:50:26;100822.34;;;3.59;89.27
55070;BME280;40967;52.070;8.596;2023-04-02T06:52:58;100836.34;;;3.61;88.75
55070;BME280;40967;52.070;8.596;2023-04-02T06:57:56;100830.56;;;3.64;88.74
55070;BME280;40967;52.070;8.596;2023-04-02T07:02:50;100839.03;;;3.61;88.11
55070;BME280;40967;52.070;8.596;2023-04-02T07:05:16;100861.88;;;3.70;88.12
55070;BME280;40967;52.070;8.596;2023-04-02T07:07:42;100849.06;;;3.72;87.53
55070;BME280;40967;52.070;8.596;2023-04-02T07:10:08;100861.47;;;3.73;87.18
55070;BME280;40967;52.070;8.596;2023-04-02T07:12:33;100865.59;;;3.69;86.99
55070;BME280;40967;52.070;8.596;2023-04-02T07:14:59;100873.25;;;3.66;87.03
55070;BME280;40967;52.070;8.596;2023-04-02T07:17:24;100883.16;;;3.65;87.10
55070;BME280;40967;52.070;8.596;2023-04-02T07:19:49;100879.47;;;3.66;86.91
55070;BME280;40967;52.070;8.596;2023-04-02T07:22:18;100888.69;;;3.70;85.90
55070;BME280;40967;52.070;8.596;2023-04-02T07:24:44;100888.53;;;3.65;85.69
55070;BME280;40967;52.070;8.596;2023-04-02T07:27:11;100902.13;;;3.70;85.90
55070;BME280;40967;52.070;8.596;2023-04-02T07:29:36;100907.06;;;3.73;85.28
55070;BME280;40967;52.070;8.596;2023-04-02T07:32:08;100906.41;;;3.78;85.63
55070;BME280;40967;52.070;8.596;2023-04-02T07:34:33;100915.31;;;3.78;85.22
55070;BME280;40967;52.070;8.596;2023-04-02T07:36:59;100928.88;;;3.83;85.11
55070;BME280;40967;52.070;8.596;2023-04-02T07:39:27;100929.50;;;3.85;85.43
55070;BME280;40967;52.070;8.596;2023-04-02T07:41:54;100934.81;;;3.92;84.91
55070;BME280;40967;52.070;8.596;2023-04-02T07:44:20;100939.34;;;3.91;84.83
55070;BME280;40967;52.070;8.596;2023-04-02T07:46:45;100945.13;;;3.95;84.12
55070;BME280;40967;52.070;8.596;2023-04-02T07:49:11;100947.59;;;3.96;84.06
55070;BME280;40967;52.070;8.596;2023-04-02T07:51:36;100952.09;;;4.02;83.34
55070;BME280;40967;52.070;8.596;2023-04-02T07:54:02;100952.72;;;4.04;83.25
55070;BME280;40967;52.070;8.596;2023-04-02T07:56:28;100959.28;;;4.08;82.49
55070;BME280;40967;52.070;8.596;2023-04-02T07:58:54;100966.75;;;4.06;81.75
55070;BME280;40967;52.070;8.596;2023-04-02T08:01:22;100959.31;;;4.02;81.76
55070;BME280;40967;52.070;8.596;2023-04-02T08:03:49;100972.53;;;4.03;80.75
55070;BME280;40967;52.070;8.596;2023-04-02T08:06:14;100985.38;;;4.01;80.71
55070;BME280;40967;52.070;8.596;2023-04-02T08:08:40;100984.94;;;4.04;80.38
55070;BME280;40967;52.070;8.596;2023-04-02T08:11:05;100990.75;;;4.01;80.28
55070;BME280;40967;52.070;8.596;2023-04-02T08:13:31;100994.63;;;4.05;80.50
55070;BME280;40967;52.070;8.596;2023-04-02T08:15:58;101001.66;;;4.06;80.83
55070;BME280;40967;52.070;8.596;2023-04-02T08:18:23;100999.16;;;4.11;81.07
55070;BME280;40967;52.070;8.596;2023-04-02T08:20:49;101003.25;;;4.14;80.99
55070;BME280;40967;52.070;8.596;2023-04-02T08:23:16;101011.69;;;4.17;80.74
55070;BME280;40967;52.070;8.596;2023-04-02T08:25:43;101009.63;;;4.19;81.03
55070;BME280;40967;52.070;8.596;2023-04-02T08:28:08;101011.69;;;4.24;80.77
55070;BME280;40967;52.070;8.596;2023-04-02T08:30:34;101010.22;;;4.21;80.15
55070;BME280;40967;52.070;8.596;2023-04-02T08:33:00;101019.50;;;4.25;79.65
55070;BME280;40967;52.070;8.596;2023-04-02T08:35:25;101025.50;;;4.27;79.28
55070;BME280;40967;52.070;8.596;2023-04-02T08:37:50;101035.63;;;4.25;79.12
55070;BME280;40967;52.070;8.596;2023-04-02T08:40:37;101029.88;;;4.22;78.12
55070;BME280;40967;52.070;8.596;2023-04-02T08:46:17;101046.16;;;4.27;78.02
55070;BME280;40967;52.070;8.596;2023-04-02T08:48:50;101051.91;;;4.30;78.84
55070;BME280;40967;52.070;8.596;2023-04-02T08:51:28;101062.00;;;4.35;nan
55070;BME280;40967;52.070;8.596;2023-04-02T08:54:02;101066.13;;;4.37;78.29
55070;BME280;40967;52.070;8.596;2023-04-02T08:56:46;101071.91;;;4.41;78.19
55070;BME280;40967;52.070;8.596;2023-04-02T09:04:39;101075.16;;;4.49;76.83
55070;BME280;40967;52.070;8.596;2023-04-02T09:07:10;101090.56;;;4.60;76.51
55070;BME280;40967;52.070;8.596;2023-04-02T09:09:36;101085.19;;;4.60;76.70
55070;BME280;40967;52.070;8.596;2023-04-02T09:12:02;101101.25;;;4.74;77.05
55070;BME280;40967;52.070;8.596;2023-04-02T09:14:45;101098.72;;;4.79;76.46
55070;BME280;40967;52.070;8.596;2023-04-02T09:17:16;101096.66;;;4.81;75.93
55070;BME280;40967;52.070;8.596;2023-04-02T09:19:43;101111.31;;;4.85;75.09
55070;BME280;40967;52.070;8.596;2023-04-02T09:24:41;101101.53;;;4.90;74.14
55070;BME280;40967;52.070;8.596;2023-04-02T09:27:18;101108.50;;;4.98;73.86
55070;BME280;40967;52.070;8.596;2023-04-02T09:29:45;101110.34;;;5.04;73.65
55070;BME280;40967;52.070;8.596;2023-04-02T09:37:40;101125.66;;;5.28;73.31
55070;BME280;40967;52.070;8.596;2023-04-02T09:40:26;101113.00;;;5.28;73.13
55070;BME280;40967;52.070;8.596;2023-04-02T09:43:22;101129.34;;;5.33;72.15
55070;BME280;40967;52.070;8.596;2023-04-02T09:48:42;101142.88;;;5.45;72.60
55070;BME280;40967;52.070;8.596;2023-04-02T09:53:45;101146.94;;;5.54;72.20
55070;BME280;40967;52.070;8.596;2023-04-02T09:56:14;101149.13;;;5.63;72.46
55070;BME280;40967;52.070;8.596;2023-04-02T09:58:41;101150.94;;;5.69;72.31
55070;BME280;40967;52.070;8.596;2023-04-02T10:01:32;101157.88;;;5.84;72.29
55070;BME280;40967;52.070;8.596;2023-04-02T10:04:00;101149.94;;;5.89;72.49
55070;BME280;40967;52.070;8.596;2023-04-02T10:06:30;101171.69;;;6.05;71.98
55070;BME280;40967;52.070;8.596;2023-04-02T10:08:57;101165.22;;;6.13;71.69
55070;BME280;40967;52.070;8.596;2023-04-02T10:11:24;101172.19;;;6.20;71.63
55070;BME280;40967;52.070;8.596;2023-04-02T10:19:01;101180.50;;;6.48;70.35
55070;BME280;40967;52.070;8.596;2023-04-02T10:21:34;101175.81;;;6.62;70.16
55070;BME280;40967;52.070;8.596;2023-04-02T10:24:00;101163.84;;;6.69;70.32
55070;BME280;40967;52.070;8.596;2023-04-02T10:31:57;101196.41;;;7.16;69.80
55070;BME280;40967;52.070;8.596;2023-04-02T10:34:37;101199.13;;;7.27;68.91
55070;BME280;40967;52.070;8.596;2023-04-02T10:39:59;101211.50;;;7.58;69.44
55070;BME280;40967;52.070;8.596;2023-04-02T10:43:13;101216.31;;;7.79;69.12
55070;BME280;40967;52.070;8.596;2023-04-02T10:45:49;101220.91;;;7.90;68.09
55070;BME280;40967;52.070;8.596;2023-04-02T10:53:20;101223.28;;;8.10;66.42
55070;BME280;40967;52.070;8.596;2023-04-02T10:55:51;101234.53;;;8.18;66.51
55070;BME280;40967;52.070;8.596;2023-04-02T10:58:26;101235.94;;;8.21;65.24
55070;BME280;40967;52.070;8.596;2023-04-02T11:00:59;101244.53;;;8.18;64.96
55070;BME280;40967;52.070;8.596;2023-04-02T11:03:38;101247.00;;;8.07;64.44
55070;BME280;40967;52.070;8.596;2023-04-02T11:06:18;101251.47;;;8.02;63.83
55070;BME280;40967;52.070;8.596;2023-04-02T11:08:47;101263.69;;;7.93;64.43
55070;BME280;40967;52.070;8.596;2023-04-02T11:14:00;101258.75;;;7.90;65.02
55070;BME280;40967;52.070;8.596;2023-04-02T11:16:27;101262.59;;;7.94;64.53
55070;BME280;40967;52.070;8.596;2023-04-02T11:24:38;101274.84;;;7.96;64.22
55070;BME280;40967;52.070;8.596;2023-04-02T11:29:41;101275.06;;;8.06;63.28
55070;BME280;40967;52.070;8.596;2023-04-02T11:32:25;101277.78;;;8.18;62.35
55070;BME280;40967;52.070;8.596;2023-04-02T11:43:01;101289.22;;;8.94;63.36
55070;BME280;40967;52.070;8.596;2023-04-02T11:55:35;101296.69;;;9.15;59.63
55070;BME280;40967;52.070;8.596;2023-04-02T12:03:36;101299.09;;;9.00;59.83
55070;BME280;40967;52.070;8.596;2023-04-02T12:11:32;101308.66;;;8.80;59.28
55070;BME280;40967;52.070;8.596;2023-04-02T12:16:53;101324.06;;;8.79;60.60
55070;BME280;40967;52.070;8.596;2023-04-02T12:19:19;101326.22;;;8.77;60.44
55070;BME280;40967;52.070;8.596;2023-04-02T12:21:45;101328.69;;;8.79;59.91
55070;BME280;40967;52.070;8.596;2023-04-02T12:24:20;101337.03;;;8.77;59.60
55070;BME280;40967;52.070;8.596;2023-04-02T12:26:46;101343.50;;;8.76;59.02
55070;BME280;40967;52.070;8.596;2023-04-02T12:29:25;101344.66;;;8.69;58.94
55070;BME280;40967;52.070;8.596;2023-04-02T12:31:55;101350.09;;;8.57;58.30
55070;BME280;40967;52.070;8.596;2023-04-02T12:34:23;101351.41;;;8.55;58.88
55070;BME280;40967;52.070;8.596;2023-04-02T12:36:54;101349.50;;;8.55;59.65
55070;BME280;40967;52.070;8.596;2023-04-02T12:39:19;101347.75;;;8.61;59.68
55070;BME280;40967;52.070;8.596;2023-04-02T12:41:45;101352.56;;;8.70;59.71
55070;BME280;40967;52.070;8.596;2023-04-02T12:44:20;101354.06;;;8.78;59.28
55070;BME280;40967;52.070;8.596;2023-04-02T12:46:47;101349.72;;;8.88;59.21
55070;BME280;40967;52.070;8.596;2023-04-02T12:49:32;101354.88;;;9.01;59.29
55070;BME280;40967;52.070;8.596;2023-04-02T12:52:01;101353.41;;;9.22;59.19
55070;BME280;40967;52.070;8.596;2023-04-02T12:54:27;101362.75;;;9.43;58.93
55070;BME280;40967;52.070;8.596;2023-04-02T12:59:54;101370.66;;;9.89;58.63
55070;BME280;40967;52.070;8.596;2023-04-02T13:02:24;101364.19;;;10.06;58.28
55070;BME280;40967;52.070;8.596;2023-04-02T13:04:53;101362.31;;;10.23;57.62
55070;BME280;40967;52.070;8.596;2023-04-02T13:07:24;101372.19;;;10.46;57.50
55070;BME280;40967;52.070;8.596;2023-04-02T13:09:52;101366.94;;;10.56;57.42
55070;BME280;40967;52.070;8.596;2023-04-02T13:12:38;101374.19;;;10.72;56.79
55070;BME280;40967;52.070;8.596;2023-04-02T13:15:07;101372.56;;;10.71;55.72
55070;BME280;40967;52.070;8.596;2023-04-02T13:17:47;101367.16;;;10.71;55.02
55070;BME280;40967;52.070;8.596;2023-04-02T13:20:41;101369.34;;;10.74;54.62
55070;BME280;40967;52.070;8.596;2023-04-02T13:25:48;101366.50;;;10.64;54.16
55070;BME280;40967;52.070;8.596;2023-04-02T13:28:14;101363.38;;;10.56;54.49
55070;BME280;40967;52.070;8.596;2023-04-02T13:30:39;101367.91;;;10.50;54.34
55070;BME280;40967;52.070;8.596;2023-04-02T13:33:05;101360.66;;;10.39;55.25
55070;BME280;40967;52.070;8.596;2023-04-02T13:35:31;101366.34;;;10.38;55.10
55070;BME280;40967;52.070;8.596;2023-04-02T13:37:56;101361.09;;;10.31;54.44
55070;BME280;40967;52.070;8.596;2023-04-02T13:40:22;101366.53;;;10.31;54.82
55070;BME280;40967;52.070;8.596;2023-04-02T13:42:47;101369.31;;;10.36;55.19
55070;BME280;40967;52.070;8.596;2023-04-02T13:45:23;101377.53;;;10.41;54.59
55070;BME280;40967;52.070;8.596;2023-04-02T13:47:49;101366.81;;;10.51;54.46
55070;BME280;40967;52.070;8.596;2023-04-02T13:50:20;101371.28;;;10.57;54.62
55070;BME280;40967;52.070;8.596;2023-04-02T13:52:49;101376.38;;;10.70;54.04
55070;BME280;40967;52.070;8.596;2023-04-02T13:55:16;101365.50;;;10.70;52.73
55070;BME280;40967;52.070;8.596;2023-04-02T13:57:44;101362.88;;;10.75;53.23
55070;BME280;40967;52.070;8.596;2023-04-02T14:00:10;101372.44;;;10.83;53.57
55070;BME280;40967;52.070;8.596;2023-04-02T14:02:39;101371.59;;;10.99;53.19
55070;BME280;40967;52.070;8.596;2023-04-02T14:19:08;101368.50;;;11.55;51.05
55070;BME280;40967;52.070;8.596;2023-04-02T14:24:23;101374.13;;;11.70;52.50
55070;BME280;40967;52.070;8.596;2023-04-02T14:32:08;101383.81;;;11.88;50.70
55070;BME280;40967;52.070;8.596;2023-04-02T14:37:40;101390.44;;;11.97;50.65
55070;BME280;40967;52.070;8.596;2023-04-02T14:40:30;101392.97;;;11.82;50.36
55070;BME280;40967;52.070;8.596;2023-04-02T14:43:16;101385.03;;;11.75;50.27
55070;BME280;40967;52.070;8.596;2023-04-02T14:50:56;101392.38;;;12.01;51.45
55070;BME280;40967;52.070;8.596;2023-04-02T14:53:28;101394.38;;;12.11;50.35
55070;BME280;40967;52.070;8.596;2023-04-02T14:55:58;101397.59;;;12.08;49.59
55070;BME280;40967;52.070;8.596;2023-04-02T15:00:57;101394.44;;;12.16;50.35
55070;BME280;40967;52.070;8.596;2023-04-02T15:03:29;101396.34;;;12.20;50.59
55070;BME280;40967;52.070;8.596;2023-04-02T15:05:59;101395.03;;;12.23;50.71
55070;BME280;40967;52.070;8.596;2023-04-02T15:13:44;101398.06;;;12.00;49.53
55070;BME280;40967;52.070;8.596;2023-04-02T15:16:17;101407.72;;;11.86;49.30
55070;BME280;40967;52.070;8.596;2023-04-02T15:18:51;101399.41;;;11.71;49.62
55070;BME280;40967;52.070;8.596;2023-04-02T15:26:34;101401.78;;;11.45;50.49
55070;BME280;40967;52.070;8.596;2023-04-02T15:32:26;101411.03;;;11.44;50.63
55070;BME280;40967;52.070;8.596;2023-04-02T15:40:57;101420.03;;;11.07;49.91
55070;BME280;40967;52.070;8.596;2023-04-02T15:43:38;101430.19;;;10.95;50.24
55070;BME280;40967;52.070;8.596;2023-04-02T15:54:18;101433.19;;;10.60;52.19
55070;BME280;40967;52.070;8.596;2023-04-02T16:05:06;101451.69;;;10.47;51.54
55070;BME280;40967;52.070;8.596;2023-04-02T16:07:47;101451.34;;;10.43;51.40
55070;BME280;40967;52.070;8.596;2023-04-02T16:12:55;101460.88;;;10.29;51.32
55070;BME280;40967;52.070;8.596;2023-04-02T16:15:27;101457.50;;;10.22;51.52
55070;BME280;40967;52.070;8.596;2023-04-02T16:18:04;101452.00;;;10.17;52.01
55070;BME280;40967;52.070;8.596;2023-04-02T16:20:51;101451.31;;;10.10;52.29
55070;BME280;40967;52.070;8.596;2023-04-02T16:23:21;101461.78;;;10.06;52.71
55070;BME280;40967;52.070;8.596;2023-04-02T16:26:00;101470.16;;;10.05;52.70
55070;BME280;40967;52.070;8.596;2023-04-02T16:31:30;101480.50;;;9.91;52.72
55070;BME280;40967;52.070;8.596;2023-04-02T16:36:52;101490.31;;;9.81;53.77
55070;BME280;40967;52.070;8.596;2023-04-02T16:39:30;101488.44;;;9.81;53.87
55070;BME280;40967;52.070;8.596;2023-04-02T16:42:10;101492.69;;;9.77;53.67
55070;BME280;40967;52.070;8.596;2023-04-02T16:50:43;101504.50;;;9.60;53.78
55070;BME280;40967;52.070;8.596;2023-04-02T16:53:24;101503.31;;;9.56;53.94
55070;BME280;40967;52.070;8.596;2023-04-02T17:09:16;101534.47;;;9.42;54.22
55070;BME280;40967;52.070;8.596;2023-04-02T17:11:50;101523.72;;;9.35;53.85
55070;BME280;40967;52.070;8.596;2023-04-02T17:16:53;101537.66;;;9.27;54.33
55070;BME280;40967;52.070;8.596;2023-04-02T17:19:23;101524.47;;;9.19;54.42
55070;BME280;40967;52.070;8.596;2023-04-02T17:21:56;101536.09;;;9.19;54.24
55070;BME280;40967;52.070;8.596;2023-04-02T17:24:25;101542.47;;;9.13;54.79
55070;BME280;40967;52.070;8.596;2023-04-02T17:26:57;101536.34;;;9.06;54.65
55070;BME280;40967;52.070;8.596;2023-04-02T17:29:39;101548.69;;;9.02;55.06
55070;BME280;40967;52.070;8.596;2023-04-02T17:32:15;101555.06;;;8.96;55.57
55070;BME280;40967;52.070;8.596;2023-04-02T17:34:42;101552.44;;;8.90;55.75
55070;BME280;40967;52.070;8.596;2023-04-02T17:50:36;101578.56;;;8.43;56.84
55070;BME280;40967;52.070;8.596;2023-04-02T17:53:15;101575.72;;;8.38;57.12
55070;BME280;40967;52.070;8.596;2023-04-02T18:06:31;101606.63;;;8.13;57.50
55070;BME280;40967;52.070;8.596;2023-04-02T18:11:59;101605.25;;;8.03;58.40
55070;BME280;40967;52.070;8.596;2023-04-02T18:15:08;101603.44;;;7.97;58.60
55070;BME280;40967;52.070;8.596;2023-04-02T18:18:03;101608.47;;;7.94;58.49
55070;BME280;40967;52.070;8.596;2023-04-02T18:23:32;101619.59;;;7.86;59.49